Time;durP1;ratioP1;P1;durP2;ratioP2;P2;SDS_P1;SDS_P2;PMS_P1;PMS_P2;Temp;Humidity;BMP_temperature;BMP_pressure;BME280_temperature;BME280_humidity;BME280_pressure;Samples;Min_cycle;Max_cycle;Signal;HPM_P1;HPM_P2
2022/08/22 00:00:29;;;;;;;17.48;11.60;;;;;;;25.71;79.97;99833.19;5052094;28;20025;-80
2022/08/22 00:03:19;;;;;;;17.15;13.00;;;;;;;25.78;79.73;99838.56;5052069;28;20528;-79
2022/08/22 00:05:57;;;;;;;13.57;12.18;;;;;;;25.78;79.71;99824.78;5051961;28;20059;-80
2022/08/22 00:08:31;;;;;;;15.43;12.55;;;;;;;25.79;79.46;99827.31;5052033;28;20028;-80
2022/08/22 00:11:52;;;;;;;14.68;13.02;;;;;;;25.80;79.32;99830.91;5051980;28;20036;-79
2022/08/22 00:14:30;;;;;;;14.45;11.93;;;;;;;25.79;79.07;99821.81;5049417;28;20037;-79
2022/08/22 00:17:16;;;;;;;20.00;13.18;;;;;;;25.73;79.57;99819.16;5053350;28;20021;-79
2022/08/22 00:20:03;;;;;;;17.35;12.45;;;;;;;25.73;79.58;99820.00;5057433;28;20387;-79
2022/08/22 00:22:46;;;;;;;18.38;12.65;;;;;;;25.78;79.33;99822.88;5058575;28;20029;-79
2022/08/22 00:25:41;;;;;;;17.52;11.77;;;;;;;25.75;79.48;99817.84;5058497;28;20028;-80
2022/08/22 00:28:39;;;;;;;18.52;12.73;;;;;;;25.79;79.20;99823.72;5058515;28;20024;-80
2022/08/22 00:31:15;;;;;;;17.35;12.45;;;;;;;25.80;78.91;99815.22;5057691;28;20128;-80
2022/08/22 00:33:50;;;;;;;18.83;12.43;;;;;;;25.83;78.78;99811.97;5058349;28;20016;-79
2022/08/22 00:36:38;;;;;;;16.38;10.98;;;;;;;25.84;78.56;99810.88;5058504;28;20486;-79
2022/08/22 00:39:23;;;;;;;14.38;11.25;;;;;;;25.76;78.51;99814.03;5057325;28;20036;-79
2022/08/22 00:42:07;;;;;;;19.45;11.60;;;;;;;25.70;78.86;99803.97;5058339;28;20444;-79
2022/08/22 00:44:53;;;;;;;22.35;12.30;;;;;;;25.68;79.34;99816.31;5058400;28;20027;-79
2022/08/22 00:47:35;;;;;;;19.77;12.13;;;;;;;25.65;79.42;99811.28;5058313;28;20455;-79
2022/08/22 00:50:29;;;;;;;15.43;12.25;;;;;;;25.62;79.89;99818.13;5058367;28;20099;-79
2022/08/22 00:53:10;;;;;;;16.73;12.55;;;;;;;25.65;79.64;99812.13;5058216;28;20075;-81
2022/08/22 00:56:01;;;;;;;14.13;12.23;;;;;;;25.72;79.14;99818.31;5058443;28;20064;-79
2022/08/22 00:59:04;;;;;;;20.35;15.88;;;;;;;25.71;79.41;99822.19;5058203;28;20036;-79
2022/08/22 01:01:36;;;;;;;23.35;12.57;;;;;;;25.68;79.39;99817.16;5058146;28;20025;-79
2022/08/22 01:04:27;;;;;;;15.15;12.73;;;;;;;25.65;79.44;99825.06;5058193;28;20048;-79
2022/08/22 01:07:14;;;;;;;14.10;12.38;;;;;;;25.61;79.43;99813.69;5058229;28;20060;-79
2022/08/22 01:10:22;;;;;;;21.40;13.70;;;;;;;25.67;79.53;99814.63;5058176;28;20347;-79
2022/08/22 01:13:00;;;;;;;15.43;12.95;;;;;;;25.64;79.42;99815.13;5058012;28;20033;-79
2022/08/22 01:15:32;;;;;;;16.33;13.77;;;;;;;25.60;79.52;99816.69;5057950;28;20024;-79
2022/08/22 01:18:43;;;;;;;19.65;13.15;;;;;;;25.59;79.81;99809.50;5058124;28;20035;-79
2022/08/22 01:21:40;;;;;;;19.05;12.80;;;;;;;25.56;80.05;99818.25;5058046;28;20029;-79
2022/08/22 01:24:34;;;;;;;19.83;12.98;;;;;;;25.46;80.35;99799.56;5058007;28;20100;-79
2022/08/22 01:27:24;;;;;;;23.73;14.50;;;;;;;25.57;80.34;99808.91;5058030;28;20032;-79
2022/08/22 01:30:17;;;;;;;15.45;13.85;;;;;;;25.58;80.24;99811.41;5054395;28;20378;-79
2022/08/22 01:33:15;;;;;;;22.10;13.38;;;;;;;25.57;80.25;99814.41;5054744;28;20029;-78
2022/08/22 01:35:40;;;;;;;19.52;13.15;;;;;;;25.56;79.93;99810.84;5054684;28;20064;-79
2022/08/22 01:38:07;;;;;;;18.33;14.70;;;;;;;25.54;80.03;99810.22;5054715;28;20061;-79
2022/08/22 01:40:48;;;;;;;15.70;13.45;;;;;;;25.49;80.07;99807.38;5053451;28;20062;-79
2022/08/22 01:43:46;;;;;;;15.88;13.73;;;;;;;25.51;80.16;99813.47;5054616;28;20032;-79
2022/08/22 01:46:30;;;;;;;20.52;14.15;;;;;;;25.53;80.21;99816.00;5054587;28;20029;-79
2022/08/22 01:49:38;;;;;;;21.85;15.85;;;;;;;25.53;80.30;99816.84;5054714;28;20037;-79
2022/08/22 01:52:25;;;;;;;22.10;15.32;;;;;;;25.40;81.20;99809.63;5054372;28;20056;-78
2022/08/22 01:55:12;;;;;;;20.92;14.20;;;;;;;25.43;80.96;99808.31;5054275;28;20120;-79
2022/08/22 01:58:02;;;;;;;19.73;14.65;;;;;;;25.41;80.98;99805.78;5054416;28;20033;-78
2022/08/22 02:00:32;;;;;;;17.30;15.05;;;;;;;25.39;80.87;99804.34;5054411;28;20143;-79
2022/08/22 02:03:24;;;;;;;16.85;14.45;;;;;;;25.34;81.11;99802.34;5052997;28;20398;-79
2022/08/22 02:06:14;;;;;;;19.45;15.35;;;;;;;25.42;81.17;99806.63;5053068;28;20033;-78
2022/08/22 02:09:17;;;;;;;17.10;15.32;;;;;;;25.32;81.16;99800.88;5054449;28;20028;-79
2022/08/22 02:11:59;;;;;;;20.08;15.82;;;;;;;25.37;81.06;99806.50;5052237;28;20138;-79
2022/08/22 02:14:31;;;;;;;20.90;15.52;;;;;;;25.40;81.06;99808.78;5053889;28;20064;-79
2022/08/22 02:17:07;;;;;;;18.60;14.20;;;;;;;25.33;80.87;99803.41;5053813;28;20051;-79
2022/08/22 02:19:43;;;;;;;15.18;13.57;;;;;;;25.41;80.60;99810.47;5053942;28;20422;-79
2022/08/22 02:22:12;;;;;;;17.92;14.60;;;;;;;25.37;80.71;99804.59;5053812;28;20040;-79
2022/08/22 02:25:03;;;;;;;15.95;14.25;;;;;;;25.36;80.85;99807.59;5053626;28;20059;-78
2022/08/22 02:27:42;;;;;;;20.77;15.93;;;;;;;25.28;80.66;99799.69;5053819;28;20032;-79
2022/08/22 02:30:21;;;;;;;23.50;16.23;;;;;;;25.32;80.46;99796.22;5053693;28;20455;-79
2022/08/22 02:33:33;;;;;;;21.40;16.75;;;;;;;25.33;80.53;99808.06;5053381;28;20021;-78
2022/08/22 02:36:05;;;;;;;19.58;15.07;;;;;;;25.18;80.64;99792.03;5053244;28;20033;-78
2022/08/22 02:38:46;;;;;;;17.98;15.75;;;;;;;25.16;81.00;99801.63;5053424;28;20033;-78
2022/08/22 02:41:35;;;;;;;18.42;13.98;;;;;;;25.23;81.29;99802.31;5053376;28;20035;-79
2022/08/22 02:44:27;;;;;;;16.10;14.48;;;;;;;25.23;81.37;99808.66;5052642;28;20044;-79
2022/08/22 02:47:07;;;;;;;;;;;;;;;25.18;81.49;99804.97;5053841;28;20032;-79
2022/08/22 02:49:41;;;;;;;19.80;14.10;;;;;;;25.14;82.02;99812.00;5053577;28;20346;-79
2022/08/22 02:52:32;;;;;;;18.42;15.82;;;;;;;25.12;82.21;99815.00;5053227;28;20405;-78
2022/08/22 02:55:15;;;;;;;16.88;12.90;;;;;;;25.12;82.38;99814.16;5053528;28;20100;-79
2022/08/22 02:57:46;;;;;;;20.45;13.50;;;;;;;25.05;82.67;99811.53;5053250;28;20075;-78
2022/08/22 03:00:20;;;;;;;17.85;14.55;;;;;;;25.05;82.85;99816.19;5053010;28;20552;-79
2022/08/22 03:02:58;;;;;;;20.75;14.07;;;;;;;25.08;82.93;99811.06;5052962;28;20036;-79
2022/08/22 03:05:26;;;;;;;23.42;14.55;;;;;;;25.05;82.98;99819.78;5053045;28;20032;-78
2022/08/22 03:08:03;;;;;;;22.80;15.93;;;;;;;25.04;83.17;99817.28;5053072;28;20036;-78
2022/08/22 03:10:37;;;;;;;16.55;14.55;;;;;;;25.02;83.31;99827.66;5052982;28;20385;-78
2022/08/22 03:13:05;;;;;;;17.35;14.60;;;;;;;25.02;83.23;99827.66;5052844;28;20226;-78
2022/08/22 03:15:49;;;;;;;18.55;13.40;;;;;;;25.00;83.32;99824.34;5052962;28;20115;-80
2022/08/22 03:18:30;;;;;;;19.80;14.00;;;;;;;24.99;83.34;99828.16;5052843;28;20505;-79
2022/08/22 03:21:10;;;;;;;22.10;14.70;;;;;;;25.01;83.37;99831.53;5053093;28;20063;-79
2022/08/22 03:23:45;;;;;;;15.57;13.95;;;;;;;25.00;83.45;99840.84;5052726;28;20025;-79
2022/08/22 03:26:17;;;;;;;21.55;15.02;;;;;;;24.92;83.23;99834.59;5052915;28;20025;-79
2022/08/22 03:28:55;;;;;;;18.88;12.82;;;;;;;24.99;82.95;99839.16;5052890;28;20055;-79
2022/08/22 03:31:25;;;;;;;15.20;12.05;;;;;;;24.92;83.03;99848.34;5052803;28;20470;-79
2022/08/22 03:34:23;;;;;;;15.88;14.07;;;;;;;24.95;83.34;99859.97;5052519;28;20029;-79
2022/08/22 03:37:00;;;;;;;24.80;18.30;;;;;;;24.92;83.16;99864.88;5052615;28;20457;-79
2022/08/22 03:39:46;;;;;;;16.88;14.68;;;;;;;24.97;82.97;99863.31;5052616;28;20029;-79
2022/08/22 03:42:15;;;;;;;19.58;15.13;;;;;;;24.91;83.24;99859.63;5053221;28;20056;-79
2022/08/22 03:45:04;;;;;;;18.05;14.95;;;;;;;24.92;83.03;99864.06;5054220;28;20028;-80
2022/08/22 03:47:59;;;;;;;19.80;16.27;;;;;;;24.92;82.92;99862.13;5058483;28;20478;-80
2022/08/22 03:50:36;;;;;;;26.05;20.45;;;;;;;24.97;82.89;99863.31;5052000;28;20108;-79
2022/08/22 03:53:13;;;;;;;22.27;18.48;;;;;;;24.86;83.64;99852.06;5051656;28;20072;-79
2022/08/22 03:55:41;;;;;;;29.75;18.45;;;;;;;24.89;83.55;99864.53;5051876;28;20029;-79
2022/08/22 03:58:28;;;;;;;24.25;18.35;;;;;;;24.85;84.29;99853.16;5052267;28;20025;-79
2022/08/22 04:01:12;;;;;;;29.27;18.90;;;;;;;24.79;84.66;99856.81;5050896;28;20028;-79
2022/08/22 04:03:40;;;;;;;24.83;18.45;;;;;;;24.82;84.74;99850.03;5051842;28;20100;-79
2022/08/22 04:06:17;;;;;;;18.50;16.60;;;;;;;24.84;84.95;99853.38;5051983;28;20090;-80
2022/08/22 04:09:20;;;;;;;29.13;17.90;;;;;;;24.88;85.09;99855.44;5050723;28;20111;-79
2022/08/22 04:12:15;;;;;;;23.60;17.23;;;;;;;24.79;85.03;99851.31;5052063;28;20538;-78
2022/08/22 04:14:49;;;;;;;19.58;16.25;;;;;;;24.85;85.12;99866.91;5051771;28;20061;-79
2022/08/22 04:17:23;;;;;;;18.60;15.55;;;;;;;24.85;85.56;99866.91;5051655;28;20051;-81
2022/08/22 04:19:55;;;;;;;23.92;16.23;;;;;;;24.78;85.17;99866.13;5051493;28;20021;-80
2022/08/22 04:22:45;;;;;;;21.97;17.30;;;;;;;24.79;85.41;99864.22;5032638;28;20544;-79
2022/08/22 04:25:19;;;;;;;22.05;14.75;;;;;;;24.75;85.17;99850.09;5031679;28;20026;-78
2022/08/22 04:28:16;;;;;;;19.40;15.43;;;;;;;24.83;85.04;99865.47;5030896;28;20034;-79
2022/08/22 04:31:04;;;;;;;23.08;15.02;;;;;;;24.90;84.71;99868.94;5027327;28;20033;-76
2022/08/22 04:33:44;;;;;;;19.02;14.40;;;;;;;24.80;84.80;99872.22;5031544;28;20018;-76
2022/08/22 04:36:12;;;;;;;30.20;13.20;;;;;;;24.78;85.25;99877.13;5031614;28;20021;-76
2022/08/22 04:38:46;;;;;;;26.73;14.80;;;;;;;24.83;85.09;99871.78;5031535;28;20026;-76
2022/08/22 04:41:50;;;;;;;13.82;12.20;;;;;;;24.88;84.80;99877.44;5032019;28;20037;-78
2022/08/22 04:44:26;;;;;;;23.70;12.85;;;;;;;24.79;85.10;99876.06;5023688;28;20033;-77
2022/08/22 04:46:59;;;;;;;26.23;13.30;;;;;;;24.84;85.05;99870.72;5031817;28;20090;-77
2022/08/22 04:49:48;;;;;;;27.85;13.82;;;;;;;24.91;85.31;99873.38;5031616;28;20021;-78
2022/08/22 04:52:49;;;;;;;18.35;13.60;;;;;;;24.99;84.85;99877.69;5031156;28;20053;-78
2022/08/22 04:55:42;;;;;;;19.35;12.85;;;;;;;25.00;84.87;99884.88;5022453;28;20421;-80
2022/08/22 04:58:16;;;;;;;;;;;;;;;25.02;84.33;99890.97;5032240;28;20033;-83
2022/08/22 05:00:56;;;;;;;18.48;11.43;;;;;;;24.98;83.68;99892.53;5031826;28;19916;-84
2022/08/22 05:03:25;;;;;;;16.67;12.45;;;;;;;25.01;83.92;99894.81;5032149;28;20025;-82
2022/08/22 05:05:54;;;;;;;13.45;12.05;;;;;;;25.07;83.67;99896.63;5035975;28;20143;-85
2022/08/22 05:08:26;;;;;;;14.38;11.35;;;;;;;25.09;83.77;99883.44;5046046;28;20132;-86
2022/08/22 05:10:53;;;;;;;19.92;13.40;;;;;;;25.17;83.81;99891.34;5056785;28;20067;-82
2022/08/22 05:13:28;;;;;;;27.40;13.70;;;;;;;25.27;83.63;99897.09;5055285;28;20044;-84
2022/08/22 05:15:58;;;;;;;15.57;13.80;;;;;;;25.26;83.40;99889.91;5055677;28;20490;-81
2022/08/22 05:18:32;;;;;;;18.80;14.77;;;;;;;25.40;83.22;99907.91;5056427;28;20032;-82
2022/08/22 05:21:01;;;;;;;16.73;13.27;;;;;;;25.48;82.49;99910.28;5059704;28;20525;-77
2022/08/22 05:23:34;;;;;;;19.10;13.57;;;;;;;25.59;82.06;99906.75;5054572;28;20033;-77
2022/08/22 05:26:04;;;;;;;16.15;12.35;;;;;;;25.55;81.25;99900.03;5053303;28;20036;-77
2022/08/22 05:28:40;;;;;;;14.02;12.60;;;;;;;25.74;81.03;99920.03;5054554;28;20381;-76
2022/08/22 05:31:11;;;;;;;15.60;12.63;;;;;;;25.74;80.52;99914.53;5054586;28;20116;-77
2022/08/22 05:33:43;;;;;;;15.68;12.52;;;;;;;25.78;79.72;99924.81;5054092;28;20029;-76
2022/08/22 05:36:15;;;;;;;14.05;11.38;;;;;;;25.86;79.33;99912.59;5054179;28;20021;-76
2022/08/22 05:38:53;;;;;;;16.98;11.50;;;;;;;25.91;79.10;99898.91;5054406;28;20055;-77
2022/08/22 05:41:23;;;;;;;16.05;12.52;;;;;;;26.06;78.15;99912.19;5054280;28;20526;-76
2022/08/22 05:43:50;;;;;;;16.30;12.32;;;;;;;26.17;78.13;99925.16;5054006;28;20111;-75
2022/08/22 05:46:18;;;;;;;12.95;11.52;;;;;;;26.15;77.29;99910.72;5054172;28;20029;-76
2022/08/22 05:48:55;;;;;;;17.35;12.38;;;;;;;26.28;77.10;99922.34;5054091;28;20033;-77
2022/08/22 05:51:28;;;;;;;15.70;12.77;;;;;;;26.35;76.54;99922.22;5054169;28;20049;-78
2022/08/22 05:54:11;;;;;;;15.10;12.60;;;;;;;26.42;76.28;99929.25;5054153;28;20025;-79
2022/08/22 05:56:43;;;;;;;16.75;13.50;;;;;;;26.41;76.37;99926.75;5053995;28;20143;-78
2022/08/22 05:59:21;;;;;;;14.07;12.57;;;;;;;26.47;76.31;99923.88;5054098;28;20037;-78
2022/08/22 06:02:02;;;;;;;15.77;12.82;;;;;;;26.49;76.30;99920.84;5053830;28;20086;-78
2022/08/22 06:04:30;;;;;;;14.35;12.68;;;;;;;26.59;75.68;99934.84;5053879;28;20029;-78
2022/08/22 06:07:13;;;;;;;15.15;12.88;;;;;;;26.55;76.02;99928.13;5052878;28;20112;-78
2022/08/22 06:10:06;;;;;;;22.20;13.20;;;;;;;26.52;75.86;99934.16;5032914;28;20045;-78
2022/08/22 06:12:41;;;;;;;19.52;14.02;;;;;;;26.50;75.36;99941.84;5016180;28;20033;-78
2022/08/22 06:15:16;;;;;;;19.42;14.27;;;;;;;26.49;75.58;99926.34;5032349;28;20033;-78
2022/08/22 06:17:46;;;;;;;17.65;15.13;;;;;;;26.58;75.49;99938.69;5032764;28;20029;-79
2022/08/22 06:20:18;;;;;;;18.42;13.38;;;;;;;26.60;75.65;99936.53;5033089;28;20033;-78
2022/08/22 06:22:52;;;;;;;23.90;15.07;;;;;;;26.66;75.18;99930.03;5033762;28;20069;-78
2022/08/22 06:25:25;;;;;;;21.67;13.95;;;;;;;26.67;74.86;99923.41;5033642;28;20521;-78
2022/08/22 06:27:53;;;;;;;17.55;12.40;;;;;;;26.71;74.57;99932.03;5033449;28;20116;-78
2022/08/22 06:30:24;;;;;;;13.68;11.82;;;;;;;26.78;74.11;99933.56;5033669;28;20044;-78
2022/08/22 06:32:53;;;;;;;28.85;14.40;;;;;;;26.82;73.34;99939.44;5033565;28;20132;-79
2022/08/22 06:38:50;;;;;;;30.10;12.48;;;;;;;26.94;71.86;99943.00;5033589;28;20091;-78
2022/08/22 06:41:20;;;;;;;26.77;13.50;;;;;;;26.97;72.90;99948.84;5033465;28;20029;-78
2022/08/22 06:43:48;;;;;;;18.85;12.90;;;;;;;27.06;72.61;99952.06;5033775;28;20026;-78
2022/08/22 06:46:15;;;;;;;13.40;11.77;;;;;;;27.13;71.71;99949.97;5033433;28;20021;-78
2022/08/22 06:48:42;;;;;;;17.45;11.77;;;;;;;27.16;71.29;99940.34;5031811;28;20384;-78
2022/08/22 06:51:11;;;;;;;17.38;12.07;;;;;;;27.31;70.69;99943.34;5032962;28;20517;-78
2022/08/22 06:53:52;;;;;;;17.33;12.75;;;;;;;27.36;69.19;99933.25;5033033;28;20121;-78
2022/08/22 06:56:25;;;;;;;18.83;11.45;;;;;;;27.48;69.45;99949.78;5031490;28;20049;-79
2022/08/22 06:58:59;;;;;;;33.97;16.13;;;;;;;27.58;68.68;99953.53;5033010;28;20025;-78
2022/08/22 07:01:43;;;;;;;14.38;11.02;;;;;;;27.66;68.05;99954.19;5033078;28;20070;-78
2022/08/22 07:04:10;;;;;;;28.38;14.02;;;;;;;27.82;68.04;99959.72;5033052;28;20017;-79
2022/08/22 07:06:42;;;;;;;19.88;11.70;;;;;;;27.90;67.50;99953.75;5032637;28;20107;-79
2022/08/22 07:09:27;;;;;;;19.42;11.02;;;;;;;27.96;66.53;99952.72;5032879;28;20072;-78
2022/08/22 07:11:58;;;;;;;19.75;10.23;;;;;;;28.04;66.00;99957.84;5031446;28;20025;-79
2022/08/22 07:14:40;;;;;;;15.55;10.23;;;;;;;28.04;65.39;99951.47;5032858;28;20017;-79
2022/08/22 07:17:08;;;;;;;17.77;9.52;;;;;;;28.05;65.78;99951.22;5032875;28;20090;-79
2022/08/22 07:19:47;;;;;;;39.45;17.50;;;;;;;28.06;65.88;99952.91;5032600;28;20048;-79
2022/08/22 07:22:16;;;;;;;37.95;18.20;;;;;;;28.03;66.16;99947.03;5032737;28;20053;-79
2022/08/22 07:24:56;;;;;;;22.98;11.48;;;;;;;28.04;65.17;99951.47;5032450;28;20030;-79
2022/08/22 07:27:38;;;;;;;34.22;11.27;;;;;;;28.14;64.99;99951.63;5031642;28;20494;-79
2022/08/22 07:30:10;;;;;;;23.02;11.10;;;;;;;28.14;64.69;99932.25;5032428;28;20463;-79
2022/08/22 07:32:51;;;;;;;38.65;10.82;;;;;;;28.24;64.50;99937.09;5032396;28;20025;-81
2022/08/22 07:35:27;;;;;;;21.30;9.98;;;;;;;28.24;63.84;99931.56;5032250;28;20040;-79
2022/08/22 07:38:12;;;;;;;14.48;8.35;;;;;;;28.40;63.84;99941.75;5032231;28;20025;-79
2022/08/22 07:41:10;;;;;;;18.48;10.68;;;;;;;28.45;62.62;99934.34;5032257;28;20033;-79
2022/08/22 07:44:12;;;;;;;18.48;10.02;;;;;;;28.55;62.44;99936.38;5032172;28;20061;-78
2022/08/22 07:46:57;;;;;;;17.38;9.02;;;;;;;28.56;62.13;99936.13;5030637;28;20112;-80
2022/08/22 07:49:29;;;;;;;20.00;9.05;;;;;;;28.66;62.23;99946.50;5032175;28;20134;-80
2022/08/22 07:51:59;;;;;;;13.77;8.95;;;;;;;28.74;61.94;99940.53;5032198;28;20499;-80
2022/08/22 07:54:40;;;;;;;18.75;9.45;;;;;;;28.80;61.49;99919.25;5032124;28;20033;-80
2022/08/22 07:57:11;;;;;;;11.82;9.25;;;;;;;28.93;61.35;99927.13;5032089;28;20068;-80
2022/08/22 07:59:42;;;;;;;19.48;10.20;;;;;;;28.99;61.23;99926.91;5031885;28;20083;-79
2022/08/22 08:02:12;;;;;;;26.35;9.48;;;;;;;28.92;62.40;99929.09;5032039;28;20033;-79
2022/08/22 08:04:39;;;;;;;24.10;9.60;;;;;;;29.00;62.31;99925.84;5032247;28;20021;-79
2022/08/22 08:07:09;;;;;;;13.40;9.98;;;;;;;28.91;62.78;99921.03;5032273;28;20030;-79
2022/08/22 08:09:41;;;;;;;11.68;10.45;;;;;;;28.97;62.92;99931.06;5033058;28;20022;-78
2022/08/22 08:12:10;;;;;;;13.93;10.57;;;;;;;28.91;62.24;99927.41;5031834;28;20485;-79
2022/08/22 08:14:40;;;;;;;14.52;10.30;;;;;;;28.82;63.28;99926.22;5030775;28;20060;-80
2022/08/22 08:17:20;;;;;;;17.38;11.48;;;;;;;28.82;64.08;99923.44;5031748;28;20041;-82
2022/08/22 08:19:46;;;;;;;19.27;11.05;;;;;;;28.80;64.64;99914.56;5031894;28;20036;-79
2022/08/22 08:22:21;;;;;;;17.70;11.32;;;;;;;28.87;64.29;99917.09;5031706;28;20104;-79
2022/08/22 08:24:50;;;;;;;14.30;10.25;;;;;;;28.96;64.52;99913.59;5030506;28;20032;-79
2022/08/22 08:30:22;;;;;;;20.80;10.07;;;;;;;29.36;62.86;99920.63;5031867;28;20122;-77
2022/08/22 08:32:55;;;;;;;35.70;10.55;;;;;;;29.54;61.98;99923.81;5031992;28;20025;-77
2022/08/22 08:35:24;;;;;;;15.25;10.38;;;;;;;29.67;61.87;99925.31;5034480;28;20033;-78
2022/08/22 08:37:54;;;;;;;15.27;9.50;;;;;;;29.74;61.45;99928.69;5054024;28;20021;-78
2022/08/22 08:40:32;;;;;;;18.90;9.32;;;;;;;29.85;60.86;99933.22;5055082;28;20124;-79
2022/08/22 08:43:33;;;;;;;15.13;9.45;;;;;;;29.95;59.98;99927.75;5056463;28;20490;-77
2022/08/22 08:46:26;;;;;;;18.75;10.43;;;;;;;29.47;61.99;99926.00;5055675;28;20414;-78
2022/08/22 08:49:08;;;;;;;14.32;9.95;;;;;;;29.66;62.17;99937.53;5055275;28;20028;-78
2022/08/22 08:52:08;;;;;;;21.23;9.00;;;;;;;29.56;61.09;99923.56;5055161;28;20198;-78
2022/08/22 08:54:39;;;;;;;15.50;8.88;;;;;;;29.59;61.89;99931.38;5064844;28;20029;-79
2022/08/22 08:57:11;;;;;;;13.80;9.83;;;;;;;29.26;62.65;99928.88;5054048;28;20383;-78
2022/08/22 08:59:55;;;;;;;21.13;10.27;;;;;;;29.40;63.37;99924.56;5056722;28;20021;-78
2022/08/22 09:02:43;;;;;;;20.17;10.35;;;;;;;29.58;63.67;99940.75;5055229;28;20665;-78
2022/08/22 09:05:46;;;;;;;20.67;9.68;;;;;;;29.84;62.47;99939.06;5055127;28;20036;-78
2022/08/22 09:08:11;;;;;;;19.73;10.13;;;;;;;29.86;63.73;99934.06;5054016;28;20032;-79
2022/08/22 09:11:03;;;;;;;15.65;10.65;;;;;;;29.85;63.73;99932.38;5054806;28;20021;-78
2022/08/22 09:13:47;;;;;;;16.30;9.63;;;;;;;29.91;63.27;99936.84;5054864;28;20440;-78
2022/08/22 09:16:35;;;;;;;16.13;8.85;;;;;;;29.84;63.40;99934.34;5055176;28;20021;-78
2022/08/22 09:19:42;;;;;;;18.52;10.50;;;;;;;29.96;62.31;99934.97;5054469;28;20035;-79
2022/08/22 09:22:14;;;;;;;13.38;9.02;;;;;;;29.90;61.22;99930.50;5034962;28;20064;-79
2022/08/22 09:25:13;;;;;;;19.30;9.60;;;;;;;29.88;59.89;99932.69;5053799;28;20094;-79
2022/08/22 09:28:08;;;;;;;14.63;8.75;;;;;;;29.75;59.11;99922.06;5039475;28;20388;-78
2022/08/22 09:31:00;;;;;;;17.17;7.78;;;;;;;29.95;58.81;99932.44;5013254;28;20045;-78
2022/08/22 09:33:34;;;;;;;;;;;;;;;29.94;57.66;99925.22;5042923;28;20039;-79
2022/08/22 09:36:12;;;;;;;9.98;6.55;;;;;;;29.95;57.80;99905.56;5054514;28;19943;-78
2022/08/22 09:38:56;;;;;;;11.65;6.97;;;;;;;30.10;55.76;99908.41;5054360;28;20056;-79
2022/08/22 09:41:37;;;;;;;11.60;10.02;;;;;;;30.15;55.94;99911.19;5052928;28;20031;-79
2022/08/22 09:44:15;;;;;;;10.25;7.28;;;;;;;30.22;56.77;99916.50;5034399;28;20071;-79
2022/08/22 09:46:56;;;;;;;8.10;6.18;;;;;;;30.07;54.81;99908.97;5050312;28;20479;-79
2022/08/22 09:49:46;;;;;;;14.80;7.00;;;;;;;29.84;56.32;99901.06;5057367;28;20028;-79
2022/08/22 09:52:56;;;;;;;19.13;6.80;;;;;;;29.91;55.97;99895.25;5060782;28;20071;-79
2022/08/22 09:55:27;;;;;;;10.48;6.68;;;;;;;30.00;54.35;99891.72;5061856;28;20068;-78
2022/08/22 09:58:04;;;;;;;30.88;8.40;;;;;;;30.19;54.92;99895.69;5054045;28;20051;-79
2022/08/22 10:00:57;;;;;;;14.65;6.53;;;;;;;30.15;54.55;99889.00;5053944;28;20021;-79
2022/08/22 10:03:46;;;;;;;14.18;5.97;;;;;;;30.37;53.90;99893.53;5053844;28;20484;-78
2022/08/22 10:06:19;;;;;;;18.95;6.82;;;;;;;30.47;53.71;99885.28;5053705;28;20135;-79
2022/08/22 10:09:02;;;;;;;19.40;6.57;;;;;;;30.57;54.25;99880.59;5052831;28;20028;-78
2022/08/22 10:11:31;;;;;;;15.90;6.95;;;;;;;30.59;56.05;99889.47;5051896;28;20033;-80
2022/08/22 10:14:02;;;;;;;30.63;7.72;;;;;;;30.69;56.11;99891.44;5053147;28;20040;-78
2022/08/22 10:16:50;;;;;;;16.92;6.93;;;;;;;30.76;56.95;99900.38;5052507;28;20382;-76
2022/08/22 10:19:34;;;;;;;30.40;8.90;;;;;;;30.78;57.30;99898.13;5053735;28;20093;-78
2022/08/22 10:22:25;;;;;;;23.08;8.02;;;;;;;30.94;56.97;99896.22;5053266;28;20052;-78
2022/08/22 10:24:57;;;;;;;17.02;7.82;;;;;;;30.72;57.29;99897.31;5068794;28;20033;-76
2022/08/22 10:28:07;;;;;;;12.00;7.10;;;;;;;30.64;57.39;99897.81;5053596;28;20025;-78
2022/08/22 10:31:15;;;;;;;13.95;7.15;;;;;;;30.38;58.24;99893.28;5053412;28;20033;-77
2022/08/22 10:33:55;;;;;;;16.13;7.90;;;;;;;30.49;58.82;99894.16;5043876;28;20037;-78
2022/08/22 10:36:31;;;;;;;20.83;8.23;;;;;;;30.60;58.13;99895.88;5054229;28;20051;-78
2022/08/22 10:38:59;;;;;;;15.82;7.82;;;;;;;30.63;58.38;99900.88;5054521;28;20036;-78
2022/08/22 10:41:43;;;;;;;20.75;8.10;;;;;;;30.55;58.64;99898.66;5051977;28;20033;-78
2022/08/22 10:44:16;;;;;;;13.02;7.85;;;;;;;30.57;59.36;99886.16;5053246;28;20024;-78
2022/08/22 10:46:57;;;;;;;18.80;7.93;;;;;;;30.57;59.52;99893.66;5051540;28;20032;-77
2022/08/22 10:49:38;;;;;;;10.32;7.75;;;;;;;30.58;59.19;99881.44;5053122;28;20086;-78
2022/08/22 10:52:18;;;;;;;19.05;8.52;;;;;;;30.66;58.56;99890.06;5053027;28;20057;-77
2022/08/22 10:54:50;;;;;;;26.42;7.93;;;;;;;30.78;57.36;99898.13;5052712;28;20061;-78
2022/08/22 10:57:40;;;;;;;21.35;7.32;;;;;;;31.00;57.68;99896.00;5052977;28;20091;-76
2022/08/22 11:00:13;;;;;;;15.95;7.70;;;;;;;31.12;56.21;99904.88;5053070;28;20033;-78
2022/08/22 11:02:44;;;;;;;23.75;8.10;;;;;;;30.87;58.05;99907.59;5052950;28;20033;-79
2022/08/22 11:05:25;;;;;;;19.70;9.60;;;;;;;30.93;58.43;99889.81;5052718;28;20159;-78
2022/08/22 11:08:21;;;;;;;14.82;8.73;;;;;;;31.17;57.50;99899.31;5052792;28;20821;-78
2022/08/22 11:10:55;;;;;;;17.98;8.95;;;;;;;30.99;58.52;99905.41;5052946;28;20032;-79
2022/08/22 11:13:44;;;;;;;17.15;9.07;;;;;;;31.05;58.71;99893.19;5052786;28;20033;-77
2022/08/22 11:16:23;;;;;;;32.03;9.52;;;;;;;31.03;59.04;99889.03;5052671;28;20475;-78
2022/08/22 11:19:07;;;;;;;28.67;9.40;;;;;;;31.05;59.19;99893.19;5052612;28;20107;-77
2022/08/22 11:21:50;;;;;;;22.38;9.40;;;;;;;31.07;59.49;99904.88;5052334;28;20056;-77
2022/08/22 11:24:30;;;;;;;14.93;9.05;;;;;;;31.11;59.27;99892.09;5052384;28;20033;-77
2022/08/22 11:27:27;;;;;;;28.23;9.23;;;;;;;31.05;59.98;99893.19;5051017;28;20036;-78
2022/08/22 11:30:02;;;;;;;14.65;8.82;;;;;;;31.21;59.71;99886.53;5052257;28;20028;-79
2022/08/22 11:32:43;;;;;;;18.05;9.32;;;;;;;31.14;60.27;99885.16;5052292;28;20445;-78
2022/08/22 11:35:22;;;;;;;22.33;10.05;;;;;;;31.06;60.34;99883.78;5052379;28;20036;-78
2022/08/22 11:38:23;;;;;;;18.98;8.52;;;;;;;30.87;61.26;99884.53;5052195;28;20029;-78
2022/08/22 11:41:21;;;;;;;23.05;9.18;;;;;;;31.05;60.80;99887.66;5043080;28;20074;-78
2022/08/22 11:44:35;;;;;;;21.17;8.77;;;;;;;31.16;59.64;99877.38;5052171;28;20486;-77
2022/08/22 11:47:06;;;;;;;17.60;7.45;;;;;;;31.31;58.72;99879.31;5037878;28;20383;-76
2022/08/22 11:49:38;;;;;;;16.65;9.27;;;;;;;31.37;58.57;99880.97;5051972;28;20029;-76
2022/08/22 11:52:35;;;;;;;18.65;8.93;;;;;;;31.17;60.23;99879.03;5051048;28;20060;-77
2022/08/22 11:55:39;;;;;;;28.63;8.32;;;;;;;31.32;59.40;99875.41;5052096;28;20432;-77
2022/08/22 11:58:44;;;;;;;17.05;7.75;;;;;;;31.38;58.88;99872.34;5052012;28;20032;-78
2022/08/22 12:01:40;;;;;;;16.30;6.85;;;;;;;31.39;59.66;99874.03;5021260;28;20045;-77
2022/08/22 12:04:05;;;;;;;22.90;8.15;;;;;;;31.50;58.77;99877.66;5045272;28;20138;-77
2022/08/22 12:06:43;;;;;;;16.50;8.00;;;;;;;31.55;58.54;99883.22;5051672;28;20060;-77
2022/08/22 12:09:12;;;;;;;23.08;7.00;;;;;;;31.47;58.78;99862.34;5051583;28;20035;-77
2022/08/22 12:11:57;;;;;;;24.50;8.25;;;;;;;31.52;58.91;99870.72;5051676;28;20025;-78
2022/08/22 12:15:05;;;;;;;30.15;7.93;;;;;;;31.56;59.39;99871.81;5051153;28;20048;-78
2022/08/22 12:17:45;;;;;;;25.35;7.80;;;;;;;31.55;59.33;99877.66;5051081;28;20053;-78
2022/08/22 12:20:46;;;;;;;16.92;7.55;;;;;;;31.62;59.25;99876.22;5050205;28;20390;-77
2022/08/22 12:23:24;;;;;;;20.85;6.72;;;;;;;31.73;58.60;99871.50;5051383;28;20024;-78
2022/08/22 12:26:04;;;;;;;30.13;7.65;;;;;;;31.74;58.59;99867.63;5051567;28;20033;-77
2022/08/22 12:29:02;;;;;;;15.98;6.72;;;;;;;31.65;59.17;99855.41;5051721;28;20032;-77
2022/08/22 12:31:39;;;;;;;15.43;6.78;;;;;;;31.66;59.32;99851.50;5050449;28;20371;-77